createdAt,value
2023-01-23T00:00:58.357Z,-2.02
2023-01-23T00:03:26.013Z,-2.01
2023-01-23T00:06:04.295Z,-2.01
2023-01-23T00:08:31.698Z,-2.01
2023-01-23T00:10:59.104Z,-2.03
2023-01-23T00:13:26.574Z,-2.05
2023-01-23T00:15:54.352Z,-2.06
2023-01-23T00:18:21.921Z,-2.05
2023-01-23T00:20:49.268Z,-2.04
2023-01-23T00:23:16.608Z,-2.05
2023-01-23T00:25:44.095Z,-2.06
2023-01-23T00:28:11.529Z,-2.06
2023-01-23T00:30:38.939Z,-2.06
2023-01-23T00:33:06.368Z,-2.07
2023-01-23T00:35:37.500Z,-2.09
2023-01-23T00:38:04.865Z,-2.10
2023-01-23T00:40:32.213Z,-2.09
2023-01-23T00:42:59.921Z,-2.08
2023-01-23T00:45:27.515Z,-2.07
2023-01-23T00:47:54.915Z,-2.08
2023-01-23T00:50:22.355Z,-2.09
2023-01-23T00:52:49.762Z,-2.11
2023-01-23T00:55:17.813Z,-2.11
2023-01-23T00:57:45.109Z,-2.11
2023-01-23T01:00:12.786Z,-2.10
2023-01-23T01:02:40.146Z,-2.10
2023-01-23T01:05:07.897Z,-2.09
2023-01-23T01:07:35.282Z,-2.08
2023-01-23T01:10:02.743Z,-2.07
2023-01-23T01:12:30.269Z,-2.06
2023-01-23T01:14:57.937Z,-2.07
2023-01-23T01:17:25.479Z,-2.07
2023-01-23T01:19:53.067Z,-2.05
2023-01-23T01:22:20.523Z,-2.03
2023-01-23T01:24:48.303Z,-2.02
2023-01-23T01:27:15.648Z,-2.02
2023-01-23T01:29:42.900Z,-2.03
2023-01-23T01:32:10.244Z,-2.03
2023-01-23T01:34:37.549Z,-2.04
2023-01-23T01:37:04.988Z,-2.03
2023-01-23T01:39:32.370Z,-2.02
2023-01-23T01:41:59.594Z,-2.01
2023-01-23T01:44:28.153Z,-2.02
2023-01-23T01:46:55.791Z,-2.02
2023-01-23T01:49:31.124Z,-2.03
2023-01-23T01:52:04.980Z,-2.03
2023-01-23T01:54:43.999Z,-2.04
2023-01-23T01:57:16.457Z,-2.04
2023-01-23T01:59:46.709Z,-2.02
2023-01-23T02:02:17.268Z,-2.01
2023-01-23T02:04:48.674Z,-2.00
2023-01-23T02:07:26.481Z,-2.00
2023-01-23T02:09:54.324Z,-2.00
2023-01-23T02:12:21.652Z,-2.01
2023-01-23T02:14:49.140Z,-2.01
2023-01-23T02:17:16.552Z,-2.01
2023-01-23T02:20:03.272Z,-2.01
2023-01-23T02:22:34.782Z,-2.00
2023-01-23T02:25:29.418Z,-1.99
2023-01-23T02:27:57.824Z,-1.98
2023-01-23T02:30:25.335Z,-1.98
2023-01-23T02:32:53.129Z,-1.98
2023-01-23T02:35:24.599Z,-1.98
2023-01-23T02:37:52.839Z,-1.99
2023-01-23T02:40:22.482Z,-1.99
2023-01-23T02:42:50.729Z,-2.00
2023-01-23T02:45:18.648Z,-2.01
2023-01-23T02:47:46.435Z,-2.03
2023-01-23T02:50:13.961Z,-2.04
2023-01-23T02:52:41.525Z,-2.04
2023-01-23T02:55:09.183Z,-2.05
2023-01-23T02:57:36.671Z,-2.04
2023-01-23T03:00:16.999Z,-2.04
2023-01-23T03:02:44.694Z,-2.04
2023-01-23T03:05:12.039Z,-2.06
2023-01-23T03:07:39.604Z,-2.06
2023-01-23T03:10:10.424Z,-2.05
2023-01-23T03:12:43.577Z,-2.06
2023-01-23T03:15:11.645Z,-2.06
2023-01-23T03:17:39.059Z,-2.06
2023-01-23T03:20:07.624Z,-2.08
2023-01-23T03:22:35.084Z,-2.10
2023-01-23T03:25:02.767Z,-2.11
2023-01-23T03:27:30.623Z,-2.12
2023-01-23T03:30:13.497Z,-2.12
2023-01-23T03:32:41.177Z,-2.12
2023-01-23T03:35:10.521Z,-2.10
2023-01-23T03:37:37.991Z,-2.10
2023-01-23T03:40:24.818Z,-2.11
2023-01-23T03:42:55.084Z,-2.13
2023-01-23T03:45:26.403Z,-2.13
2023-01-23T03:47:53.873Z,-2.13
2023-01-23T03:50:21.761Z,-2.13
2023-01-23T03:52:49.608Z,-2.13
2023-01-23T03:55:17.114Z,-2.12
2023-01-23T03:57:45.131Z,-2.12
2023-01-23T04:00:25.442Z,-2.13
2023-01-23T04:02:58.265Z,-2.13
2023-01-23T04:05:25.622Z,-2.13
2023-01-23T04:07:53.149Z,-2.14
2023-01-23T04:10:20.898Z,-2.14
2023-01-23T04:12:52.868Z,-2.14
2023-01-23T04:15:20.324Z,-2.15
2023-01-23T04:17:47.678Z,-2.14
2023-01-23T04:20:15.307Z,-2.14
2023-01-23T04:22:43.870Z,-2.14
2023-01-23T04:25:11.568Z,-2.14
2023-01-23T04:27:39.039Z,-2.14
2023-01-23T04:30:07.755Z,-2.15
2023-01-23T04:32:35.529Z,-2.15
2023-01-23T04:35:03.188Z,-2.15
2023-01-23T04:37:30.692Z,-2.15
2023-01-23T04:39:58.353Z,-2.16
2023-01-23T04:42:26.561Z,-2.17
2023-01-23T04:45:08.559Z,-2.17
2023-01-23T04:47:44.671Z,-2.17
2023-01-23T04:50:12.309Z,-2.17
2023-01-23T04:52:41.528Z,-2.17
2023-01-23T04:55:09.420Z,-2.17
2023-01-23T04:57:36.937Z,-2.17
2023-01-23T05:00:14.747Z,-2.16
2023-01-23T05:02:42.389Z,-2.15
2023-01-23T05:05:09.996Z,-2.16
2023-01-23T05:07:37.988Z,-2.16
2023-01-23T05:10:10.267Z,-2.16
2023-01-23T05:12:37.756Z,-2.16
2023-01-23T05:15:05.658Z,-2.16
2023-01-23T08:31:43.187Z,-2.19
2023-01-23T08:34:10.845Z,-2.06
2023-01-23T08:36:38.274Z,-2.06
2023-01-23T08:39:05.681Z,-2.07
2023-01-23T08:41:33.060Z,-2.07
2023-01-23T08:44:01.993Z,-2.06
2023-01-23T08:46:29.516Z,-2.05
2023-01-23T08:48:57.337Z,-2.06
2023-01-23T08:51:25.781Z,-2.09
2023-01-23T08:53:53.837Z,-2.10
2023-01-23T08:56:22.507Z,-2.10
2023-01-23T08:58:50.592Z,-2.09
2023-01-23T09:01:27.362Z,-2.10
2023-01-23T09:03:55.228Z,-2.12
2023-01-23T09:06:23.295Z,-2.14
2023-01-23T09:08:50.813Z,-2.15
2023-01-23T09:11:18.407Z,-2.14
2023-01-23T09:13:47.058Z,-2.10
2023-01-23T09:16:14.581Z,-2.04
2023-01-23T09:18:42.029Z,-2.01
2023-01-23T09:21:11.565Z,-1.99
2023-01-23T09:23:39.011Z,-1.96
2023-01-23T09:26:11.250Z,-1.95
2023-01-23T09:28:40.228Z,-1.99
2023-01-23T09:31:08.490Z,-2.03
2023-01-23T09:33:36.143Z,-2.06
2023-01-23T09:36:04.440Z,-2.07
2023-01-23T09:38:33.705Z,-2.05
2023-01-23T09:41:07.271Z,-2.02
2023-01-23T09:43:52.130Z,-2.00
2023-01-23T09:46:44.747Z,-1.99
2023-01-23T09:49:18.445Z,-1.99
2023-01-23T09:51:58.227Z,-2.00
2023-01-23T09:54:46.707Z,-1.98
2023-01-23T09:57:25.991Z,-1.97
2023-01-23T10:00:11.522Z,-1.96
2023-01-23T10:02:38.955Z,-1.93
2023-01-23T10:05:13.947Z,-1.91
2023-01-23T10:07:46.180Z,-1.91
2023-01-23T10:10:55.572Z,-1.94
2023-01-23T10:13:49.052Z,-1.95
2023-01-23T10:16:50.451Z,-1.93
2023-01-23T10:19:18.489Z,-1.91
2023-01-23T10:21:52.672Z,-1.93
2023-01-23T10:24:45.678Z,-1.94
2023-01-23T10:27:19.314Z,-1.93
2023-01-23T10:30:00.573Z,-1.92
2023-01-23T10:32:30.276Z,-1.92
2023-01-23T10:35:03.441Z,-1.91
2023-01-23T10:37:31.612Z,-1.93
2023-01-23T10:40:11.843Z,-1.96
2023-01-23T10:42:39.340Z,-1.95
2023-01-23T10:45:07.582Z,-1.92
2023-01-23T10:47:37.056Z,-1.93
2023-01-23T10:50:06.509Z,-1.95
2023-01-23T10:52:37.879Z,-2.00
2023-01-23T10:55:11.907Z,-2.02
2023-01-23T10:57:50.342Z,-2.01
2023-01-23T11:00:28.241Z,-2.01
2023-01-23T11:02:55.867Z,-2.01
2023-01-23T11:05:54.717Z,-2.00
2023-01-23T11:08:27.620Z,-2.01
2023-01-23T11:10:57.217Z,-2.05
2023-01-23T11:13:31.331Z,-2.05
2023-01-23T11:15:59.134Z,-2.08
2023-01-23T11:18:34.723Z,-2.11
2023-01-23T11:21:02.262Z,-2.14
2023-01-23T11:23:29.792Z,-2.17
2023-01-23T11:25:57.291Z,-2.18
2023-01-23T11:28:34.271Z,-2.22
2023-01-23T11:31:15.876Z,-2.27
2023-01-23T11:33:55.307Z,-2.27
2023-01-23T11:36:52.559Z,-2.24
2023-01-23T11:39:44.223Z,-2.24
2023-01-23T11:42:11.857Z,-2.24
2023-01-23T11:44:45.963Z,-2.26
2023-01-23T11:47:30.879Z,-2.25
2023-01-23T11:50:07.747Z,-2.23
2023-01-23T11:52:36.694Z,-2.25
2023-01-23T11:55:13.174Z,-2.29
2023-01-23T11:57:46.767Z,-2.29
2023-01-23T12:00:34.355Z,-2.29
2023-01-23T12:03:25.907Z,-2.31
2023-01-23T12:09:17.745Z,-2.30
2023-01-23T12:12:15.916Z,-2.27
2023-01-23T12:15:18.984Z,-2.26
2023-01-23T12:18:08.657Z,-2.27
2023-01-23T12:20:42.304Z,-2.34
2023-01-23T12:23:16.931Z,-2.40
2023-01-23T12:26:14.680Z,-2.45
2023-01-23T12:29:12.474Z,-2.50
2023-01-23T12:31:52.773Z,-2.52
2023-01-23T12:34:48.476Z,-2.52
2023-01-23T12:37:35.069Z,-2.49
2023-01-23T12:40:23.936Z,-2.49
2023-01-23T12:42:51.655Z,-2.52
2023-01-23T12:45:24.374Z,-2.56
2023-01-23T12:48:13.090Z,-2.56
2023-01-23T12:50:56.491Z,-2.54
2023-01-23T12:53:24.267Z,-2.50
2023-01-23T12:56:15.242Z,-2.50
2023-01-23T12:58:51.781Z,-2.48
2023-01-23T13:01:51.152Z,-2.45
2023-01-23T13:04:27.819Z,-2.43
2023-01-23T13:07:00.795Z,-2.41
2023-01-23T13:10:08.684Z,-2.41
2023-01-23T13:12:36.173Z,-2.41
2023-01-23T13:15:38.739Z,-2.42
2023-01-23T17:19:41.907Z,-2.69
2023-01-23T17:22:22.112Z,-2.59
2023-01-23T17:24:51.517Z,-2.60
2023-01-23T17:27:21.689Z,-2.59
2023-01-23T17:29:51.144Z,-2.58
2023-01-23T17:32:29.722Z,-2.58
2023-01-23T17:35:01.724Z,-2.59
2023-01-23T17:37:32.360Z,-2.59
2023-01-23T17:40:02.131Z,-2.60
2023-01-23T17:42:31.643Z,-2.60
2023-01-23T17:45:00.831Z,-2.62
2023-01-23T17:51:54.943Z,-2.62
2023-01-23T17:54:24.189Z,-2.60
2023-01-23T17:56:54.929Z,-2.60
2023-01-23T17:59:24.259Z,-2.61
2023-01-23T18:01:53.574Z,-2.62
2023-01-23T18:04:26.239Z,-2.63
2023-01-23T18:06:55.270Z,-2.63
2023-01-23T18:09:26.708Z,-2.63
2023-01-23T18:11:56.076Z,-2.63
2023-01-23T18:14:47.534Z,-2.64
2023-01-23T18:17:33.816Z,-2.65
2023-01-23T18:20:03.285Z,-2.66
2023-01-23T18:22:33.397Z,-2.68
2023-01-23T18:25:03.512Z,-2.70
2023-01-23T18:27:33.225Z,-2.70
2023-01-23T18:30:26.982Z,-2.72
2023-01-23T18:33:02.212Z,-2.73
2023-01-23T18:36:03.255Z,-2.74
2023-01-23T18:38:59.940Z,-2.74
2023-01-23T18:41:29.469Z,-2.75
2023-01-23T18:44:08.126Z,-2.75
2023-01-23T18:46:38.212Z,-2.74
2023-01-23T18:49:07.492Z,-2.74
2023-01-23T18:51:47.484Z,-2.76
2023-01-23T18:54:28.822Z,-2.77
2023-01-23T18:57:07.924Z,-2.77
2023-01-23T18:59:46.205Z,-2.77
2023-01-23T19:02:31.684Z,-2.78
2023-01-23T19:05:16.365Z,-2.80
2023-01-23T19:07:45.993Z,-2.81
2023-01-23T19:10:23.276Z,-2.81
2023-01-23T19:13:14.320Z,-2.83
2023-01-23T19:15:49.271Z,-2.84
2023-01-23T19:18:59.718Z,-2.85
2023-01-23T19:21:38.642Z,-2.86
2023-01-23T19:24:10.376Z,-2.87
2023-01-23T19:26:41.021Z,-2.86
2023-01-23T19:29:26.154Z,-2.85
2023-01-23T19:32:09.988Z,-2.84
2023-01-23T19:34:39.168Z,-2.84
2023-01-23T19:37:08.535Z,-2.84
2023-01-23T19:39:38.397Z,-2.83
2023-01-23T19:42:13.107Z,-2.82
2023-01-23T19:44:42.260Z,-2.81
2023-01-23T19:47:11.495Z,-2.80
2023-01-23T19:49:41.156Z,-2.79
2023-01-23T19:52:13.877Z,-2.77
2023-01-23T19:54:42.956Z,-2.77
2023-01-23T19:57:13.777Z,-2.75
2023-01-23T19:59:42.844Z,-2.76
2023-01-23T20:02:19.826Z,-2.77
2023-01-23T20:04:49.633Z,-2.78
2023-01-23T20:07:18.783Z,-2.78
2023-01-23T20:09:47.931Z,-2.78
2023-01-23T20:12:18.191Z,-2.79
2023-01-23T20:14:47.255Z,-2.78
2023-01-23T20:17:16.206Z,-2.78
2023-01-23T20:19:45.287Z,-2.78
2023-01-23T20:22:15.318Z,-2.78
2023-01-23T20:24:46.592Z,-2.78
2023-01-23T20:27:15.956Z,-2.79
2023-01-23T20:29:45.421Z,-2.80
2023-01-23T20:32:15.397Z,-2.79
2023-01-23T20:34:44.407Z,-2.79
2023-01-23T20:37:13.682Z,-2.79
2023-01-23T20:39:44.994Z,-2.79
2023-01-23T20:42:15.335Z,-2.78
2023-01-23T20:44:46.840Z,-2.78
2023-01-23T20:47:17.702Z,-2.79
2023-01-23T20:49:47.588Z,-2.78
2023-01-23T20:52:36.029Z,-2.78
2023-01-23T20:55:05.531Z,-2.77
2023-01-23T20:57:54.167Z,-2.77
2023-01-23T21:00:23.389Z,-2.75
2023-01-23T21:02:53.370Z,-2.74
2023-01-23T21:05:23.230Z,-2.74
2023-01-23T21:07:53.178Z,-2.73
2023-01-23T21:10:22.537Z,-2.72
2023-01-23T21:12:53.426Z,-2.70
2023-01-23T21:15:23.064Z,-2.69
2023-01-23T21:17:52.781Z,-2.68
2023-01-23T21:20:22.822Z,-2.68
2023-01-23T21:22:56.758Z,-2.68
2023-01-23T21:25:27.265Z,-2.67
2023-01-23T21:27:56.221Z,-2.65
2023-01-23T21:30:24.899Z,-2.63
2023-01-23T21:32:53.801Z,-2.62
2023-01-23T21:35:23.238Z,-2.60
2023-01-23T21:37:52.633Z,-2.59
2023-01-23T21:40:21.926Z,-2.58
2023-01-23T21:42:50.935Z,-2.57
2023-01-23T21:45:26.230Z,-2.56
2023-01-23T21:47:55.397Z,-2.56
2023-01-23T21:50:24.317Z,-2.57
2023-01-23T21:52:53.779Z,-2.56
2023-01-23T21:55:23.548Z,-2.58
2023-01-23T21:57:52.491Z,-2.58
2023-01-23T22:00:53.985Z,-2.57
2023-01-23T22:03:23.268Z,-2.56
2023-01-23T22:05:52.990Z,-2.56
2023-01-23T22:08:22.523Z,-2.55
2023-01-23T22:10:51.865Z,-2.54
2023-01-23T22:13:20.941Z,-2.53
2023-01-23T22:15:49.782Z,-2.52
2023-01-23T22:18:19.893Z,-2.50
2023-01-23T22:20:56.630Z,-2.50
2023-01-23T22:23:25.545Z,-2.49
2023-01-23T22:25:59.368Z,-2.49
2023-01-23T22:28:29.656Z,-2.48
2023-01-23T22:30:58.436Z,-2.47
2023-01-23T22:33:39.509Z,-2.47
2023-01-23T22:36:11.209Z,-2.47
2023-01-23T22:38:40.262Z,-2.48
2023-01-23T22:41:12.539Z,-2.47
2023-01-23T22:43:43.305Z,-2.47
2023-01-23T22:46:16.698Z,-2.45
2023-01-23T22:48:45.484Z,-2.45
2023-01-23T22:51:28.643Z,-2.45
2023-01-23T22:53:58.250Z,-2.45
2023-01-23T22:56:27.485Z,-2.44
2023-01-23T22:58:56.648Z,-2.43
2023-01-23T23:01:27.425Z,-2.43
2023-01-23T23:03:58.074Z,-2.42
2023-01-23T23:06:27.308Z,-2.42
2023-01-23T23:08:58.042Z,-2.41
2023-01-23T23:11:27.822Z,-2.40
2023-01-23T23:13:57.320Z,-2.40
2023-01-23T23:16:28.123Z,-2.39
2023-01-23T23:18:58.886Z,-2.38
2023-01-23T23:21:30.521Z,-2.37
2023-01-23T23:24:00.355Z,-2.36
2023-01-23T23:26:30.253Z,-2.36
2023-01-23T23:28:59.894Z,-2.35
2023-01-23T23:31:29.158Z,-2.34
2023-01-23T23:33:58.250Z,-2.32
2023-01-23T23:36:27.219Z,-2.32
2023-01-23T23:38:56.218Z,-2.31
2023-01-23T23:41:25.234Z,-2.31
2023-01-23T23:43:57.890Z,-2.29
2023-01-23T23:46:26.680Z,-2.28
2023-01-23T23:48:55.452Z,-2.26
2023-01-23T23:51:26.792Z,-2.25
2023-01-23T23:53:55.813Z,-2.24
2023-01-23T23:56:27.655Z,-2.24
2023-01-23T23:58:56.658Z,-2.23
